Time;durP1;ratioP1;P1;durP2;ratioP2;P2;SDS_P1;SDS_P2;PMS_P1;PMS_P2;Temp;Humidity;BMP_temperature;BMP_pressure;BME280_temperature;BME280_humidity;BME280_pressure;Samples;Min_cycle;Max_cycle;Signal;HPM_P1;HPM_P2
2021/08/25 00:00:32;;;;;;;1.92;1.52;;;11.70;99.90;;;;;;4946286;28;20228;-70
2021/08/25 00:02:59;;;;;;;1.70;1.25;;;11.60;99.90;;;;;;4950303;28;20194;-69
2021/08/25 00:05:25;;;;;;;2.45;1.38;;;11.60;99.90;;;;;;4954517;28;20260;-70
2021/08/25 00:07:50;;;;;;;5.28;1.90;;;11.50;99.90;;;;;;4948969;28;20309;-71
2021/08/25 00:10:16;;;;;;;1.95;1.45;;;11.50;99.90;;;;;;4950197;28;20188;-71
2021/08/25 00:12:41;;;;;;;3.08;1.60;;;11.40;99.90;;;;;;4948629;28;20221;-70
2021/08/25 00:15:09;;;;;;;2.92;1.55;;;11.40;99.90;;;;;;4950867;28;20204;-70
2021/08/25 00:17:35;;;;;;;2.40;1.30;;;11.50;99.90;;;;;;4965793;28;20696;-71
2021/08/25 00:20:01;;;;;;;2.47;2.10;;;11.40;99.90;;;;;;4950883;28;20189;-71
2021/08/25 00:22:27;;;;;;;1.92;1.20;;;11.50;99.90;;;;;;4951640;28;20239;-71
2021/08/25 00:24:53;;;;;;;1.73;1.23;;;11.50;99.90;;;;;;4950242;28;20225;-70
2021/08/25 00:27:18;;;;;;;2.40;1.38;;;11.40;99.90;;;;;;4951108;28;20204;-69
2021/08/25 00:29:44;;;;;;;2.30;1.30;;;11.20;99.90;;;;;;4954698;28;20201;-70
2021/08/25 00:32:10;;;;;;;1.50;1.15;;;11.10;99.90;;;;;;4968668;28;20200;-71
2021/08/25 00:34:35;;;;;;;4.43;1.53;;;11.10;99.90;;;;;;4955200;28;20186;-71
2021/08/25 00:37:01;;;;;;;2.38;1.10;;;11.10;99.90;;;;;;4957438;28;20267;-72
2021/08/25 00:39:27;;;;;;;3.20;1.50;;;11.10;99.90;;;;;;4962824;28;20227;-70
2021/08/25 00:41:53;;;;;;;2.60;1.55;;;11.00;99.90;;;;;;4957164;28;20181;-69
2021/08/25 00:44:19;;;;;;;3.87;1.30;;;10.90;99.90;;;;;;4945797;28;20241;-71
2021/08/25 00:46:45;;;;;;;2.50;1.38;;;10.90;99.90;;;;;;4953501;28;20209;-69
2021/08/25 00:49:17;;;;;;;5.47;1.83;;;10.90;99.90;;;;;;4952529;28;20300;-68
2021/08/25 00:51:47;;;;;;;1.60;1.17;;;10.90;99.90;;;;;;4947561;28;20193;-71
2021/08/25 00:54:17;;;;;;;2.25;1.45;;;10.80;99.90;;;;;;4946331;28;20221;-71
2021/08/25 00:56:44;;;;;;;2.90;1.70;;;10.80;99.90;;;;;;4946719;28;20251;-69
2021/08/25 00:59:11;;;;;;;2.13;1.23;;;10.70;99.90;;;;;;4953910;28;20185;-69
2021/08/25 01:01:40;;;;;;;2.50;1.13;;;10.70;99.90;;;;;;4948723;28;20185;-69
2021/08/25 01:04:12;;;;;;;2.13;1.20;;;10.70;99.90;;;;;;4944928;28;20297;-72
2021/08/25 01:06:37;;;;;;;2.40;1.20;;;10.60;99.90;;;;;;4945540;28;20297;-70
2021/08/25 01:09:03;;;;;;;2.30;1.40;;;10.70;99.90;;;;;;4949686;28;20660;-70
2021/08/25 01:11:32;;;;;;;1.20;0.87;;;10.70;99.90;;;;;;4953970;28;20204;-70
2021/08/25 01:13:57;;;;;;;15.40;1.80;;;10.60;99.90;;;;;;4948304;28;20592;-69
2021/08/25 01:16:25;;;;;;;1.47;1.10;;;10.60;99.90;;;;;;4963943;28;20244;-71
2021/08/25 01:18:51;;;;;;;2.60;1.57;;;10.60;99.90;;;;;;4948559;28;20182;-71
2021/08/25 01:21:17;;;;;;;1.67;1.20;;;10.50;99.90;;;;;;4956175;28;20193;-71
2021/08/25 01:23:46;;;;;;;1.90;1.17;;;10.40;99.90;;;;;;4947118;28;20194;-71
2021/08/25 01:26:15;;;;;;;1.43;1.00;;;10.30;99.90;;;;;;4960519;28;20217;-70
2021/08/25 01:28:52;;;;;;;2.50;1.20;;;10.20;99.90;;;;;;4949013;28;20189;-69
2021/08/25 01:31:20;;;;;;;2.30;1.33;;;10.20;99.90;;;;;;4945720;28;20228;-68
2021/08/25 01:33:46;;;;;;;4.07;1.63;;;10.10;99.90;;;;;;4949167;28;20232;-72
2021/08/25 01:36:22;;;;;;;1.70;1.10;;;10.10;99.90;;;;;;4945630;28;20214;-70
2021/08/25 01:38:50;;;;;;;2.47;1.23;;;10.10;99.90;;;;;;4946245;28;20196;-71
2021/08/25 01:41:18;;;;;;;2.17;1.30;;;10.10;99.90;;;;;;4946013;28;20625;-69
2021/08/25 01:43:43;;;;;;;3.00;1.30;;;10.10;99.90;;;;;;4946048;28;20276;-70
2021/08/25 01:46:28;;;;;;;2.10;1.10;;;9.90;99.90;;;;;;4947077;28;20308;-69
2021/08/25 01:48:55;;;;;;;3.43;1.50;;;10.00;99.90;;;;;;4952138;28;20201;-69
2021/08/25 01:51:21;;;;;;;1.80;1.07;;;10.10;99.90;;;;;;4946175;28;20197;-69
2021/08/25 01:53:47;;;;;;;1.93;1.30;;;10.00;99.90;;;;;;4959999;28;20592;-71
2021/08/25 01:56:12;;;;;;;3.83;2.07;;;10.00;99.90;;;;;;4956538;28;20225;-68
2021/08/25 01:58:40;;;;;;;2.73;1.47;;;10.00;99.90;;;;;;4963940;28;20196;-71
2021/08/25 02:01:06;;;;;;;2.37;1.10;;;10.00;99.90;;;;;;4949710;28;20205;-70
2021/08/25 02:03:34;;;;;;;2.27;1.27;;;9.90;99.90;;;;;;4950422;28;20196;-68
2021/08/25 02:05:59;;;;;;;2.47;1.30;;;9.90;99.90;;;;;;4954251;28;20209;-70
2021/08/25 02:08:25;;;;;;;1.90;1.50;;;9.90;99.90;;;;;;4956125;28;20181;-71
2021/08/25 02:10:50;;;;;;;1.80;1.20;;;9.80;99.90;;;;;;4954971;28;20192;-70
2021/08/25 02:13:16;;;;;;;2.17;1.43;;;9.80;99.90;;;;;;4954385;28;20755;-69
2021/08/25 02:15:42;;;;;;;3.07;1.40;;;9.70;99.90;;;;;;4951726;28;20221;-70
2021/08/25 02:18:07;;;;;;;2.57;1.63;;;9.70;99.90;;;;;;4960306;28;20193;-72
2021/08/25 02:20:33;;;;;;;2.13;1.03;;;9.60;99.90;;;;;;4951840;28;20337;-69
2021/08/25 02:22:59;;;;;;;1.83;1.17;;;9.60;99.90;;;;;;4956171;28;20293;-73
2021/08/25 02:25:24;;;;;;;3.63;1.70;;;9.70;99.90;;;;;;4950347;28;20584;-72
2021/08/25 02:27:50;;;;;;;3.87;1.50;;;9.70;99.90;;;;;;4949530;28;20336;-71
2021/08/25 02:30:15;;;;;;;2.03;1.47;;;9.60;99.90;;;;;;4958759;28;20220;-71
2021/08/25 02:32:42;;;;;;;2.87;1.70;;;9.40;99.90;;;;;;4952048;28;20198;-71
2021/08/25 02:35:09;;;;;;;2.43;1.70;;;9.10;99.90;;;;;;4957092;28;20194;-69
2021/08/25 02:37:35;;;;;;;2.03;1.63;;;9.00;99.90;;;;;;4949303;28;20574;-70
2021/08/25 02:40:01;;;;;;;3.33;1.40;;;9.10;99.90;;;;;;4953099;28;20193;-72
2021/08/25 02:42:26;;;;;;;3.23;1.43;;;9.10;99.90;;;;;;4957008;28;20280;-69
2021/08/25 02:44:52;;;;;;;2.47;1.33;;;9.30;99.90;;;;;;4958213;28;20566;-71
2021/08/25 02:47:18;;;;;;;1.40;1.23;;;9.40;99.90;;;;;;4947536;28;20229;-70
2021/08/25 02:49:43;;;;;;;2.40;1.63;;;9.50;99.90;;;;;;4956350;28;20241;-71
2021/08/25 02:52:09;;;;;;;2.20;1.57;;;9.40;99.90;;;;;;4948750;28;20282;-69
2021/08/25 02:54:35;;;;;;;2.90;1.10;;;9.40;99.90;;;;;;4950382;28;20921;-71
2021/08/25 02:57:00;;;;;;;2.53;1.10;;;9.30;99.90;;;;;;4956837;28;20221;-69
2021/08/25 02:59:26;;;;;;;2.63;1.50;;;9.40;99.90;;;;;;4952128;28;20185;-68
2021/08/25 03:01:51;;;;;;;2.10;1.73;;;9.30;99.90;;;;;;4953913;28;20190;-72
2021/08/25 03:04:17;;;;;;;2.97;1.53;;;9.20;99.90;;;;;;4949638;28;20633;-71
2021/08/25 03:06:43;;;;;;;2.93;1.97;;;9.20;99.90;;;;;;4952284;28;20296;-72
2021/08/25 03:09:08;;;;;;;2.60;1.70;;;9.30;99.90;;;;;;4956053;28;20257;-71
2021/08/25 03:11:35;;;;;;;2.00;1.37;;;9.30;99.90;;;;;;4955643;28;20208;-70
2021/08/25 03:14:01;;;;;;;2.37;1.27;;;9.20;99.90;;;;;;4968325;28;20623;-70
2021/08/25 03:16:26;;;;;;;2.83;1.57;;;9.20;99.90;;;;;;4949216;28;20303;-71
2021/08/25 03:18:52;;;;;;;2.60;1.50;;;9.00;99.90;;;;;;4949186;28;20559;-71
2021/08/25 03:21:18;;;;;;;3.13;1.33;;;8.90;99.90;;;;;;4953289;28;20185;-71
2021/08/25 03:23:43;;;;;;;2.63;1.53;;;9.00;99.90;;;;;;4962200;28;20288;-69
2021/08/25 03:26:09;;;;;;;3.27;1.70;;;8.90;99.90;;;;;;4957297;28;20727;-69
2021/08/25 03:28:34;;;;;;;2.40;1.67;;;9.00;99.90;;;;;;4951202;28;20194;-71
2021/08/25 03:31:00;;;;;;;2.77;1.63;;;9.00;99.90;;;;;;4954081;28;20656;-69
2021/08/25 03:33:26;;;;;;;2.50;1.40;;;9.00;99.90;;;;;;4954850;28;20193;-71
2021/08/25 03:35:51;;;;;;;3.03;1.80;;;9.00;99.90;;;;;;4957238;28;20212;-70
2021/08/25 03:38:17;;;;;;;2.83;1.67;;;9.00;99.90;;;;;;4952992;28;20193;-72
2021/08/25 03:40:43;;;;;;;3.17;1.50;;;8.90;99.90;;;;;;4951646;28;20277;-70
2021/08/25 03:43:08;;;;;;;2.87;1.40;;;9.00;99.90;;;;;;4957089;28;20185;-71
2021/08/25 03:45:34;;;;;;;2.70;1.40;;;9.00;99.90;;;;;;4949183;28;20559;-70
2021/08/25 03:47:59;;;;;;;3.30;1.57;;;9.00;99.90;;;;;;4958055;28;20545;-68
2021/08/25 03:50:25;;;;;;;2.30;1.20;;;8.90;99.90;;;;;;4949185;28;20200;-69
2021/08/25 03:52:50;;;;;;;1.93;1.30;;;9.00;99.90;;;;;;4949186;28;20272;-72
2021/08/25 03:55:16;;;;;;;2.77;1.80;;;9.00;99.90;;;;;;4955351;28;20201;-69
2021/08/25 03:57:42;;;;;;;3.23;1.33;;;8.90;99.90;;;;;;4951624;28;20375;-69
2021/08/25 04:00:08;;;;;;;4.73;1.57;;;9.00;99.90;;;;;;4955367;28;20197;-69
2021/08/25 04:02:33;;;;;;;2.60;1.10;;;9.00;99.90;;;;;;4965344;28;20597;-68
2021/08/25 04:04:59;;;;;;;2.53;1.37;;;9.00;99.90;;;;;;4946636;28;20210;-71
2021/08/25 04:07:25;;;;;;;1.73;1.37;;;9.00;99.90;;;;;;4950590;28;20767;-70
2021/08/25 04:09:50;;;;;;;1.80;1.57;;;8.90;99.90;;;;;;4949912;28;20677;-70
2021/08/25 04:12:16;;;;;;;4.63;1.30;;;8.90;99.90;;;;;;4953400;28;20192;-72
2021/08/25 04:14:41;;;;;;;2.70;1.33;;;8.90;99.90;;;;;;4975865;28;20193;-70
2021/08/25 04:17:08;;;;;;;3.00;1.30;;;9.00;99.90;;;;;;4950518;28;20343;-69
2021/08/25 04:19:33;;;;;;;2.03;1.10;;;9.00;99.90;;;;;;4949037;28;20277;-69
2021/08/25 04:21:59;;;;;;;1.40;1.00;;;9.00;99.90;;;;;;4953406;28;20606;-68
2021/08/25 04:24:25;;;;;;;1.90;1.33;;;8.90;99.90;;;;;;4951282;28;20200;-70
2021/08/25 04:26:53;;;;;;;1.40;1.10;;;9.00;99.90;;;;;;4955269;28;20205;-71
2021/08/25 04:29:18;;;;;;;3.13;1.30;;;9.00;99.90;;;;;;4969139;28;20308;-70
2021/08/25 04:31:44;;;;;;;2.03;1.27;;;9.10;99.90;;;;;;4952505;28;20705;-70
2021/08/25 04:34:10;;;;;;;3.00;1.57;;;9.20;99.90;;;;;;4952454;28;20193;-70
2021/08/25 04:36:36;;;;;;;2.30;1.30;;;9.20;99.90;;;;;;4948035;28;20228;-70
2021/08/25 04:39:02;;;;;;;2.33;1.23;;;9.20;99.90;;;;;;4953928;28;20738;-69
2021/08/25 04:41:28;;;;;;;2.57;1.60;;;9.20;99.90;;;;;;4968279;28;20213;-70
2021/08/25 04:43:53;;;;;;;4.63;1.57;;;9.20;99.90;;;;;;4955615;28;20460;-68
2021/08/25 04:46:19;;;;;;;6.03;1.60;;;9.40;99.90;;;;;;4954715;28;20614;-69
2021/08/25 04:48:45;;;;;;;2.50;1.50;;;9.60;99.90;;;;;;4954648;28;20351;-70
2021/08/25 04:51:11;;;;;;;2.83;1.57;;;9.70;99.90;;;;;;4949638;28;20345;-70
2021/08/25 04:53:38;;;;;;;3.57;1.63;;;9.80;99.90;;;;;;4963131;28;20197;-69
2021/08/25 04:56:04;;;;;;;3.27;1.33;;;9.90;99.90;;;;;;4946853;28;20283;-70
2021/08/25 04:58:32;;;;;;;2.97;1.47;;;10.10;99.90;;;;;;4945417;28;20628;-71
2021/08/25 05:00:58;;;;;;;2.00;1.33;;;10.10;99.90;;;;;;4955333;28;20718;-72
2021/08/25 05:03:24;;;;;;;3.53;1.60;;;10.10;99.90;;;;;;4952882;28;20272;-70
2021/08/25 05:05:49;;;;;;;1.50;1.27;;;10.20;99.90;;;;;;4953308;28;20533;-70
2021/08/25 05:08:15;;;;;;;1.93;1.10;;;10.30;99.90;;;;;;4965923;28;20549;-69
2021/08/25 05:10:47;;;;;;;2.63;1.60;;;10.30;99.90;;;;;;4955728;28;20227;-71
2021/08/25 05:13:12;;;;;;;2.07;1.47;;;10.40;99.90;;;;;;4959383;28;20292;-71
2021/08/25 05:15:41;;;;;;;3.47;1.47;;;10.60;99.90;;;;;;4951408;28;20292;-70
2021/08/25 05:18:07;;;;;;;2.23;1.40;;;10.60;99.90;;;;;;4954269;28;20203;-70
2021/08/25 05:20:33;;;;;;;3.30;1.63;;;10.70;99.90;;;;;;4950927;28;20189;-71
2021/08/25 05:22:58;;;;;;;2.25;1.70;;;10.70;99.90;;;;;;4955309;28;20193;-71
2021/08/25 05:25:24;;;;;;;1.93;1.20;;;10.80;99.90;;;;;;4953969;28;20558;-69
2021/08/25 05:27:50;;;;;;;4.90;1.37;;;10.80;99.90;;;;;;4954793;28;20209;-70
2021/08/25 05:30:16;;;;;;;2.30;1.15;;;10.80;99.90;;;;;;4953009;28;20185;-70
2021/08/25 05:32:41;;;;;;;2.20;1.60;;;10.80;99.90;;;;;;4959143;28;20180;-71
2021/08/25 05:35:08;;;;;;;1.60;1.23;;;10.90;99.90;;;;;;4959942;28;20215;-69
2021/08/25 05:37:33;;;;;;;2.00;1.17;;;11.00;99.90;;;;;;4949217;28;20221;-69
2021/08/25 05:39:59;;;;;;;1.88;1.30;;;11.10;99.90;;;;;;4958178;28;20192;-70
2021/08/25 05:42:24;;;;;;;2.40;1.30;;;11.10;99.90;;;;;;4955427;28;20597;-70
2021/08/25 05:44:50;;;;;;;1.87;1.27;;;11.20;99.90;;;;;;4953152;28;20264;-71
2021/08/25 05:47:16;;;;;;;3.30;1.70;;;11.30;99.90;;;;;;4951023;28;20216;-70
2021/08/25 05:49:41;;;;;;;2.33;1.50;;;11.40;99.90;;;;;;4953305;28;20185;-70
2021/08/25 05:52:07;;;;;;;2.47;1.65;;;11.50;99.90;;;;;;4954625;28;20268;-71
2021/08/25 05:54:32;;;;;;;2.25;1.50;;;11.60;99.90;;;;;;4953445;28;20283;-71
2021/08/25 05:56:58;;;;;;;3.53;2.20;;;11.70;99.90;;;;;;4951066;28;20220;-68
2021/08/25 05:59:24;;;;;;;3.25;2.20;;;11.80;99.90;;;;;;4957111;28;20252;-70
2021/08/25 06:01:49;;;;;;;3.85;1.83;;;11.80;99.90;;;;;;4955402;28;20174;-69
2021/08/25 06:04:15;;;;;;;2.63;2.00;;;11.90;99.90;;;;;;4953826;28;20534;-72
2021/08/25 06:06:40;;;;;;;4.00;2.05;;;12.00;99.90;;;;;;4952223;28;20209;-69
2021/08/25 06:09:06;;;;;;;2.90;1.70;;;12.20;99.90;;;;;;4950042;28;20430;-69
2021/08/25 06:11:32;;;;;;;5.32;1.77;;;12.20;99.90;;;;;;4955010;28;20185;-69
2021/08/25 06:13:58;;;;;;;3.85;2.10;;;12.40;99.90;;;;;;4953861;28;20594;-72
2021/08/25 06:16:23;;;;;;;4.97;1.95;;;12.40;99.90;;;;;;4951744;28;20291;-69
2021/08/25 06:18:49;;;;;;;3.03;1.80;;;12.40;99.90;;;;;;4968553;28;20976;-71
2021/08/25 06:21:18;;;;;;;3.67;1.90;;;12.60;99.90;;;;;;4948136;28;20186;-69
2021/08/25 06:23:44;;;;;;;4.63;2.42;;;12.60;99.90;;;;;;4945463;28;20685;-70
2021/08/25 06:26:10;;;;;;;4.03;1.90;;;12.70;99.90;;;;;;4949570;28;20257;-70
2021/08/25 06:28:36;;;;;;;4.32;1.88;;;12.70;99.90;;;;;;4946696;28;20194;-71
2021/08/25 06:31:02;;;;;;;3.20;1.80;;;12.80;99.90;;;;;;4945803;28;20264;-70
2021/08/25 06:33:28;;;;;;;5.38;2.20;;;13.00;99.90;;;;;;4951400;28;20208;-69
2021/08/25 06:35:54;;;;;;;3.03;2.08;;;13.20;99.90;;;;;;4953515;28;20228;-70
2021/08/25 06:38:20;;;;;;;2.75;2.10;;;13.40;99.90;;;;;;4947805;28;20512;-68
2021/08/25 06:40:46;;;;;;;4.75;2.50;;;13.40;99.90;;;;;;4945839;28;20198;-70
2021/08/25 06:43:11;;;;;;;5.43;2.25;;;13.40;99.90;;;;;;4948310;28;20226;-70
2021/08/25 06:45:37;;;;;;;3.88;2.38;;;13.50;99.90;;;;;;4962970;28;20197;-71
2021/08/25 06:48:04;;;;;;;4.63;2.35;;;13.60;99.90;;;;;;4952268;28;20216;-72
2021/08/25 06:50:29;;;;;;;5.15;2.53;;;13.80;99.90;;;;;;4952167;28;20231;-71
2021/08/25 06:52:55;;;;;;;5.07;2.55;;;13.90;99.90;;;;;;4951216;28;20660;-68
2021/08/25 06:55:21;;;;;;;5.32;2.50;;;14.10;99.90;;;;;;4956720;28;20189;-70
2021/08/25 06:57:46;;;;;;;3.38;2.03;;;14.10;99.90;;;;;;4954379;28;20310;-67
2021/08/25 07:00:12;;;;;;;5.35;2.85;;;14.10;99.90;;;;;;4948466;28;20200;-71
2021/08/25 07:02:38;;;;;;;4.82;2.78;;;14.30;99.90;;;;;;4950431;28;20181;-68
2021/08/25 07:05:05;;;;;;;6.15;2.78;;;14.40;99.90;;;;;;4951172;28;20182;-69
2021/08/25 07:07:32;;;;;;;5.50;2.40;;;14.40;99.90;;;;;;4948741;28;20205;-70
2021/08/25 07:09:57;;;;;;;4.57;2.50;;;14.40;99.90;;;;;;4950152;28;20325;-68
2021/08/25 07:12:23;;;;;;;7.15;2.63;;;14.50;99.90;;;;;;4949724;28;20280;-69
2021/08/25 07:14:50;;;;;;;6.22;2.95;;;14.60;99.90;;;;;;4947649;28;20684;-68
2021/08/25 07:17:16;;;;;;;4.15;2.55;;;14.70;99.90;;;;;;4947968;28;20642;-71
2021/08/25 07:19:42;;;;;;;4.03;2.55;;;14.90;99.90;;;;;;4948628;28;20217;-68
2021/08/25 07:22:09;;;;;;;5.35;3.00;;;14.80;99.90;;;;;;4953167;28;20185;-68
2021/08/25 07:24:35;;;;;;;5.20;2.58;;;15.00;99.90;;;;;;4967814;28;20240;-66
2021/08/25 07:27:00;;;;;;;5.78;2.47;;;15.10;99.90;;;;;;4956298;28;20245;-68
2021/08/25 07:29:26;;;;;;;6.18;2.30;;;15.30;99.90;;;;;;4951493;28;20189;-69
2021/08/25 07:31:51;;;;;;;6.53;2.60;;;15.40;99.90;;;;;;4948274;28;20285;-70
2021/08/25 07:34:17;;;;;;;4.25;2.50;;;15.40;99.90;;;;;;4956173;28;20672;-69
2021/08/25 07:36:43;;;;;;;5.30;2.47;;;15.60;99.90;;;;;;4950209;28;20220;-69
2021/08/25 07:39:08;;;;;;;2.90;2.17;;;15.80;99.90;;;;;;4954345;28;20186;-70
2021/08/25 07:41:34;;;;;;;3.63;2.50;;;15.90;99.90;;;;;;4949160;28;20657;-70
2021/08/25 07:44:00;;;;;;;5.05;2.20;;;15.90;99.90;;;;;;4951780;28;20218;-69
2021/08/25 07:46:32;;;;;;;2.92;1.90;;;16.00;99.90;;;;;;4947697;28;20610;-69
2021/08/25 07:49:03;;;;;;;4.13;2.20;;;16.10;99.90;;;;;;4948476;28;20212;-70
2021/08/25 07:51:29;;;;;;;3.97;2.20;;;16.20;99.90;;;;;;4966053;28;21217;-69
2021/08/25 07:53:55;;;;;;;5.57;2.65;;;16.30;99.90;;;;;;4951015;28;20221;-68
2021/08/25 07:56:21;;;;;;;5.15;2.97;;;16.50;99.90;;;;;;4948898;28;20253;-68
2021/08/25 07:58:46;;;;;;;3.72;1.98;;;16.60;99.90;;;;;;4947420;28;20276;-69
2021/08/25 08:01:12;;;;;;;5.20;2.15;;;16.70;99.90;;;;;;4948248;28;20236;-68
2021/08/25 08:03:38;;;;;;;3.58;2.17;;;17.00;99.90;;;;;;4947145;28;20190;-70
2021/08/25 08:06:05;;;;;;;4.40;2.53;;;17.10;99.90;;;;;;4947528;28;20264;-69
2021/08/25 08:08:30;;;;;;;5.97;2.67;;;17.10;99.90;;;;;;4946636;28;20300;-70
2021/08/25 08:10:56;;;;;;;4.43;2.42;;;17.10;99.90;;;;;;4953293;28;20285;-69
2021/08/25 08:13:22;;;;;;;3.83;2.53;;;17.10;99.90;;;;;;4947253;28;20185;-69
2021/08/25 08:15:47;;;;;;;3.65;1.95;;;17.20;99.90;;;;;;4960462;28;21181;-68
2021/08/25 08:18:20;;;;;;;2.85;1.73;;;17.20;99.90;;;;;;4958332;28;20217;-69
2021/08/25 08:20:46;;;;;;;2.80;2.05;;;17.30;99.90;;;;;;4947876;28;20181;-69
2021/08/25 08:23:12;;;;;;;4.28;2.55;;;17.30;99.90;;;;;;4950015;28;20659;-71
2021/08/25 08:25:38;;;;;;;3.90;2.55;;;17.40;99.90;;;;;;4948644;28;20189;-70
2021/08/25 08:28:05;;;;;;;4.85;2.72;;;17.40;99.90;;;;;;4961839;28;20200;-69
2021/08/25 08:30:32;;;;;;;3.17;2.33;;;17.50;99.90;;;;;;4949940;28;20664;-70
2021/08/25 08:32:58;;;;;;;3.65;2.15;;;17.80;99.90;;;;;;4946679;28;20641;-71
2021/08/25 08:35:24;;;;;;;4.13;2.33;;;18.10;99.90;;;;;;4946639;28;20236;-70
2021/08/25 08:37:50;;;;;;;3.30;2.05;;;18.50;99.90;;;;;;4947381;28;20233;-71
2021/08/25 08:40:15;;;;;;;7.28;2.38;;;19.00;99.90;;;;;;4950609;28;20663;-70
2021/08/25 08:42:41;;;;;;;3.92;2.50;;;19.40;99.90;;;;;;4960754;28;20182;-70
2021/08/25 08:45:10;;;;;;;3.83;2.35;;;19.70;99.90;;;;;;4949219;28;20213;-68
2021/08/25 08:47:36;;;;;;;3.47;2.25;;;19.50;99.90;;;;;;4949448;28;20271;-69
2021/08/25 08:50:03;;;;;;;3.30;1.70;;;19.40;99.90;;;;;;4946822;28;20661;-69
2021/08/25 08:52:29;;;;;;;3.90;2.50;;;19.10;99.90;;;;;;4949209;28;20206;-70
2021/08/25 08:54:57;;;;;;;5.47;2.63;;;19.00;99.90;;;;;;4950071;28;20250;-70
2021/08/25 08:57:23;;;;;;;4.05;2.40;;;19.00;99.90;;;;;;4966812;28;20376;-69
2021/08/25 08:59:49;;;;;;;6.55;2.22;;;18.90;99.90;;;;;;4945367;28;20189;-70
2021/08/25 09:02:36;;;;;;;5.57;2.67;;;19.10;99.90;;;;;;4952440;28;20185;-71
2021/08/25 09:05:18;;;;;;;3.88;2.30;;;19.50;99.90;;;;;;4963852;28;20255;-69
2021/08/25 09:07:58;;;;;;;3.20;1.88;;;19.80;99.90;;;;;;4944653;28;20265;-71
2021/08/25 09:10:36;;;;;;;4.25;1.80;;;19.70;99.90;;;;;;4945370;28;20181;-69
2021/08/25 09:13:07;;;;;;;3.30;1.90;;;19.70;99.90;;;;;;4949985;28;20265;-69
2021/08/25 09:15:43;;;;;;;3.25;2.00;;;19.60;99.90;;;;;;4961594;28;20549;-69
2021/08/25 09:18:13;;;;;;;2.53;1.75;;;19.40;99.90;;;;;;4953007;28;20189;-69
2021/08/25 09:20:44;;;;;;;2.85;1.63;;;19.20;99.90;;;;;;4949645;28;20191;-68
2021/08/25 09:23:18;;;;;;;2.78;1.95;;;19.40;99.90;;;;;;4951301;28;20669;-71
2021/08/25 09:25:45;;;;;;;2.15;1.55;;;19.50;99.90;;;;;;4961293;28;20186;-68
2021/08/25 09:28:13;;;;;;;4.57;2.20;;;19.80;99.90;;;;;;4951838;28;20264;-68
2021/08/25 09:31:07;;;;;;;4.65;2.00;;;20.20;99.90;;;;;;4947768;28;20186;-70
2021/08/25 09:33:37;;;;;;;3.72;2.08;;;20.40;99.90;;;;;;4951618;28;20664;-69
2021/08/25 09:36:11;;;;;;;2.50;1.70;;;20.60;99.90;;;;;;4946071;28;20704;-68
2021/08/25 09:38:38;;;;;;;3.90;1.70;;;20.80;99.90;;;;;;4946602;28;20185;-70
2021/08/25 09:41:07;;;;;;;4.05;1.83;;;21.20;99.90;;;;;;4946358;28;20189;-67
2021/08/25 09:43:43;;;;;;;4.65;1.60;;;21.20;99.90;;;;;;4955467;28;20243;-69
2021/08/25 09:46:19;;;;;;;3.67;1.77;;;21.20;99.90;;;;;;4945677;28;20232;-69
2021/08/25 09:48:51;;;;;;;2.95;1.30;;;21.20;99.90;;;;;;4960874;28;20242;-68
2021/08/25 09:51:19;;;;;;;2.70;1.70;;;21.20;99.90;;;;;;4964003;28;20185;-69
2021/08/25 09:53:47;;;;;;;3.05;1.80;;;21.30;99.90;;;;;;4960452;28;20617;-70
2021/08/25 09:56:28;;;;;;;2.78;1.50;;;21.20;99.90;;;;;;4949290;28;20308;-69
2021/08/25 09:58:55;;;;;;;2.95;1.70;;;21.20;99.90;;;;;;4946553;28;20709;-68
2021/08/25 10:01:21;;;;;;;3.15;1.80;;;21.40;99.90;;;;;;4953307;28;20249;-70
2021/08/25 10:03:47;;;;;;;3.38;1.55;;;21.40;99.90;;;;;;4960047;28;20194;-70
2021/08/25 10:06:21;;;;;;;2.47;1.52;;;21.20;99.90;;;;;;4958522;28;20290;-69
2021/08/25 10:08:47;;;;;;;3.10;1.50;;;21.20;99.90;;;;;;4952511;28;20701;-70
2021/08/25 10:11:15;;;;;;;4.13;1.90;;;21.00;99.90;;;;;;4967566;28;20193;-70
2021/08/25 10:13:42;;;;;;;2.40;1.42;;;21.10;99.90;;;;;;4959022;28;20506;-70
2021/08/25 10:16:13;;;;;;;3.47;1.75;;;21.10;99.90;;;;;;4948507;28;20224;-68
2021/08/25 10:18:41;;;;;;;2.33;1.60;;;21.00;99.90;;;;;;4957205;28;20220;-69
2021/08/25 10:21:42;;;;;;;2.75;1.60;;;20.90;99.90;;;;;;4949563;28;20188;-68
2021/08/25 10:24:08;;;;;;;2.47;1.98;;;21.20;99.90;;;;;;4882217;29;20201;-69
2021/08/25 10:26:59;;;;;;;2.42;1.52;;;21.10;99.90;;;;;;4934159;28;20939;-69
2021/08/25 10:29:29;;;;;;;1.80;1.30;;;21.00;99.90;;;;;;4947769;28;20194;-69
2021/08/25 10:31:56;;;;;;;1.98;1.52;;;21.00;99.90;;;;;;4949770;28;20190;-69
2021/08/25 10:34:24;;;;;;;3.05;1.77;;;21.20;99.90;;;;;;4962113;28;20193;-70
2021/08/25 10:36:50;;;;;;;1.67;1.40;;;21.40;99.90;;;;;;4948561;28;20567;-69
2021/08/25 10:39:34;;;;;;;2.72;1.85;;;21.50;99.90;;;;;;4962406;28;20233;-70
2021/08/25 10:42:01;;;;;;;1.75;1.30;;;21.70;99.90;;;;;;4972382;28;20893;-68
2021/08/25 10:44:45;;;;;;;3.58;1.65;;;21.60;99.90;;;;;;4947700;28;20182;-69
2021/08/25 10:47:14;;;;;;;2.88;1.70;;;21.60;99.90;;;;;;4952839;28;20300;-69
2021/08/25 10:49:42;;;;;;;2.17;1.50;;;21.50;99.90;;;;;;4964387;28;20552;-69
2021/08/25 10:52:18;;;;;;;2.15;1.33;;;21.30;99.90;;;;;;4949724;28;20660;-70
2021/08/25 10:54:55;;;;;;;1.95;1.40;;;21.50;99.90;;;;;;4949257;28;20189;-68
2021/08/25 10:57:23;;;;;;;2.17;1.50;;;21.70;99.90;;;;;;4948705;28;20217;-71
2021/08/25 10:59:50;;;;;;;2.40;1.38;;;21.90;99.90;;;;;;4952353;28;20271;-69
2021/08/25 11:02:16;;;;;;;1.63;1.30;;;22.00;99.90;;;;;;4949248;28;20186;-70
2021/08/25 11:04:42;;;;;;;1.95;1.35;;;21.90;99.90;;;;;;4948020;28;20185;-70
2021/08/25 11:07:12;;;;;;;2.45;1.60;;;21.80;99.90;;;;;;4951572;28;20209;-69
2021/08/25 11:09:44;;;;;;;2.53;1.65;;;21.70;99.90;;;;;;4951440;28;20272;-70
2021/08/25 11:12:13;;;;;;;2.20;1.40;;;21.50;99.90;;;;;;4953830;28;20680;-69
2021/08/25 11:14:46;;;;;;;2.58;1.63;;;21.50;99.90;;;;;;4954917;28;20240;-69
2021/08/25 11:17:23;;;;;;;2.60;1.48;;;21.60;99.90;;;;;;4967489;28;20269;-69
2021/08/25 11:19:52;;;;;;;2.15;1.50;;;21.60;99.90;;;;;;4953439;28;20712;-70
2021/08/25 11:22:25;;;;;;;2.90;1.92;;;21.80;99.90;;;;;;4953544;28;20236;-70
2021/08/25 11:24:55;;;;;;;2.85;1.50;;;21.80;99.90;;;;;;4947562;28;20181;-69
2021/08/25 11:27:25;;;;;;;2.47;1.30;;;21.80;99.90;;;;;;4951954;28;20268;-70
2021/08/25 11:30:20;;;;;;;2.65;1.60;;;21.90;99.90;;;;;;4948442;28;20253;-69
2021/08/25 11:32:59;;;;;;;2.95;1.50;;;22.00;99.90;;;;;;4957987;28;20184;-71
2021/08/25 11:35:34;;;;;;;2.55;1.83;;;22.00;99.90;;;;;;4950420;28;20509;-70
2021/08/25 11:38:08;;;;;;;2.75;1.70;;;22.00;99.90;;;;;;4966204;28;20216;-70
2021/08/25 11:40:45;;;;;;;1.83;1.48;;;22.10;99.90;;;;;;4956356;28;20185;-69
2021/08/25 11:43:16;;;;;;;2.75;1.60;;;22.40;99.90;;;;;;4949633;28;21275;-69
2021/08/25 11:45:44;;;;;;;3.53;1.70;;;22.30;99.90;;;;;;4950527;28;20547;-68
2021/08/25 11:48:10;;;;;;;3.95;2.08;;;22.10;99.90;;;;;;4973022;28;20209;-68
2021/08/25 11:50:38;;;;;;;2.03;1.70;;;22.00;99.90;;;;;;4966415;28;20224;-67
2021/08/25 11:53:24;;;;;;;2.10;1.60;;;22.10;99.90;;;;;;4954747;28;20181;-69
2021/08/25 11:55:52;;;;;;;2.53;1.73;;;22.10;99.90;;;;;;4952364;28;20215;-69
2021/08/25 11:58:23;;;;;;;2.58;1.58;;;22.10;99.90;;;;;;4954586;28;20211;-70
2021/08/25 12:00:50;;;;;;;3.63;1.70;;;22.20;99.90;;;;;;4968863;28;20664;-69
2021/08/25 12:03:16;;;;;;;2.67;2.00;;;22.30;99.90;;;;;;4949179;28;20194;-69
2021/08/25 12:05:54;;;;;;;3.00;1.58;;;22.40;99.90;;;;;;4944986;28;20233;-70
2021/08/25 12:08:20;;;;;;;2.53;1.80;;;22.50;99.90;;;;;;4964863;28;20217;-70
2021/08/25 12:11:04;;;;;;;3.30;1.67;;;22.50;99.90;;;;;;4948559;28;20182;-70
2021/08/25 12:13:32;;;;;;;1.98;1.30;;;22.50;99.90;;;;;;4947510;28;20237;-70
2021/08/25 12:15:59;;;;;;;2.50;1.80;;;22.80;99.90;;;;;;4947916;28;20342;-70
2021/08/25 12:18:27;;;;;;;2.70;1.80;;;23.00;99.90;;;;;;4947533;28;20186;-69
2021/08/25 12:21:06;;;;;;;2.00;1.40;;;22.70;99.90;;;;;;4963904;28;20182;-68
2021/08/25 12:23:32;;;;;;;3.72;1.63;;;22.90;99.90;;;;;;4953831;28;20189;-70
2021/08/25 12:25:58;;;;;;;1.98;1.45;;;22.90;99.90;;;;;;4955211;28;20262;-71
2021/08/25 12:28:30;;;;;;;2.80;1.60;;;22.80;99.90;;;;;;4964078;28;20341;-70
2021/08/25 12:31:09;;;;;;;2.10;1.52;;;22.90;99.90;;;;;;4954059;28;20276;-72
2021/08/25 12:33:35;;;;;;;2.65;2.05;;;22.60;99.90;;;;;;4966053;28;20193;-70
2021/08/25 12:36:20;;;;;;;2.50;1.42;;;22.40;99.90;;;;;;4952092;28;20213;-72
2021/08/25 12:38:46;;;;;;;2.50;1.58;;;22.70;99.90;;;;;;4946966;28;20514;-71
2021/08/25 12:41:12;;;;;;;2.13;1.52;;;22.70;99.90;;;;;;4950478;28;20197;-70
2021/08/25 12:43:37;;;;;;;1.55;1.20;;;22.90;99.90;;;;;;4946862;28;20204;-70
2021/08/25 12:46:03;;;;;;;2.15;1.80;;;23.40;99.90;;;;;;4952180;28;20217;-68
2021/08/25 12:48:28;;;;;;;2.15;1.60;;;23.40;99.90;;;;;;4952289;28;20205;-68
2021/08/25 12:50:54;;;;;;;3.88;2.10;;;23.30;99.90;;;;;;4960429;28;20839;-70